<?xml version="1.0" encoding="UTF-8"?>
<gpx creator="Wikiloc - https://www.wikiloc.com" version="1.1" xmlns="http://www.topografix.com/GPX/1/1" xmlns:xsi="http://www.w3.org/2001/XMLSchema-instance" xsi:schemaLocation="http://www.topografix.com/GPX/1/1 http://www.topografix.com/GPX/1/1/gpx.xsd">
  <metadata>
    <name>Wikiloc - Playa La Sabina, Playa de la Consolación y Iglesia de San Ma...</name>
    <link href="https://www.wikiloc.com/hiking-trails/playa-la-sabina-playa-de-la-consolacion-y-iglesia-de-san-marcos-evangelista-desde-el-guincho-159405760">
      <text>Playa La Sabina, Playa de la Consolación y Iglesia de San Ma... on Wikiloc</text>
    </link>
    <time>2024-01-28T11:04:29Z</time>
  </metadata>
  <trk>
    <name>Playa La Sabina, Playa de la Consolación y Iglesia de San Ma...</name>
    <cmt></cmt>
    <desc></desc>
    <trkseg>
      <trkpt lat="28.369409" lon="-16.717666">
        <ele>212.595</ele>
        <time>2024-01-28T08:29:35Z</time>
      </trkpt>
      <trkpt lat="28.369227" lon="-16.718741">
        <ele>207.649</ele>
        <time>2024-01-28T08:31:21Z</time>
      </trkpt>
      <trkpt lat="28.369488" lon="-16.718908">
        <ele>204.523</ele>
        <time>2024-01-28T08:31:46Z</time>
      </trkpt>
      <trkpt lat="28.369605" lon="-16.719195">
        <ele>200.309</ele>
        <time>2024-01-28T08:32:13Z</time>
      </trkpt>
      <trkpt lat="28.370125" lon="-16.719485">
        <ele>194.990</ele>
        <time>2024-01-28T08:33:01Z</time>
      </trkpt>
      <trkpt lat="28.370142" lon="-16.719713">
        <ele>193.654</ele>
        <time>2024-01-28T08:33:15Z</time>
      </trkpt>
      <trkpt lat="28.370622" lon="-16.720146">
        <ele>189.528</ele>
        <time>2024-01-28T08:34:43Z</time>
      </trkpt>
      <trkpt lat="28.370816" lon="-16.720719">
        <ele>179.563</ele>
        <time>2024-01-28T08:35:44Z</time>
      </trkpt>
      <trkpt lat="28.370488" lon="-16.721331">
        <ele>176.359</ele>
        <time>2024-01-28T08:36:41Z</time>
      </trkpt>
      <trkpt lat="28.370537" lon="-16.721682">
        <ele>176.374</ele>
        <time>2024-01-28T08:37:10Z</time>
      </trkpt>
      <trkpt lat="28.371159" lon="-16.722031">
        <ele>171.046</ele>
        <time>2024-01-28T08:38:15Z</time>
      </trkpt>
      <trkpt lat="28.371127" lon="-16.722260">
        <ele>171.965</ele>
        <time>2024-01-28T08:38:38Z</time>
      </trkpt>
      <trkpt lat="28.371807" lon="-16.722378">
        <ele>164.539</ele>
        <time>2024-01-28T08:39:57Z</time>
      </trkpt>
      <trkpt lat="28.371737" lon="-16.722594">
        <ele>158.699</ele>
        <time>2024-01-28T08:40:22Z</time>
      </trkpt>
      <trkpt lat="28.371835" lon="-16.722563">
        <ele>156.207</ele>
        <time>2024-01-28T08:40:31Z</time>
      </trkpt>
      <trkpt lat="28.371870" lon="-16.722741">
        <ele>156.127</ele>
        <time>2024-01-28T08:40:32Z</time>
      </trkpt>
      <trkpt lat="28.372000" lon="-16.722666">
        <ele>156.109</ele>
        <time>2024-01-28T08:40:34Z</time>
      </trkpt>
      <trkpt lat="28.371976" lon="-16.722770">
        <ele>156.190</ele>
        <time>2024-01-28T08:40:35Z</time>
      </trkpt>
      <trkpt lat="28.372096" lon="-16.722493">
        <ele>156.714</ele>
        <time>2024-01-28T08:40:55Z</time>
      </trkpt>
      <trkpt lat="28.374432" lon="-16.723487">
        <ele>121.728</ele>
        <time>2024-01-28T08:44:44Z</time>
      </trkpt>
      <trkpt lat="28.373838" lon="-16.725719">
        <ele>115.593</ele>
        <time>2024-01-28T08:47:31Z</time>
      </trkpt>
      <trkpt lat="28.374116" lon="-16.726467">
        <ele>105.699</ele>
        <time>2024-01-28T08:48:34Z</time>
      </trkpt>
      <trkpt lat="28.374048" lon="-16.727196">
        <ele>103.294</ele>
        <time>2024-01-28T08:49:27Z</time>
      </trkpt>
      <trkpt lat="28.373422" lon="-16.727766">
        <ele>100.866</ele>
        <time>2024-01-28T08:50:26Z</time>
      </trkpt>
      <trkpt lat="28.373061" lon="-16.727951">
        <ele>99.995</ele>
        <time>2024-01-28T08:50:56Z</time>
      </trkpt>
      <trkpt lat="28.372247" lon="-16.727998">
        <ele>97.619</ele>
        <time>2024-01-28T08:52:04Z</time>
      </trkpt>
      <trkpt lat="28.371833" lon="-16.728428">
        <ele>101.256</ele>
        <time>2024-01-28T08:52:47Z</time>
      </trkpt>
      <trkpt lat="28.372529" lon="-16.730615">
        <ele>94.759</ele>
        <time>2024-01-28T08:55:27Z</time>
      </trkpt>
      <trkpt lat="28.373049" lon="-16.731054">
        <ele>89.414</ele>
        <time>2024-01-28T08:56:19Z</time>
      </trkpt>
      <trkpt lat="28.373399" lon="-16.731966">
        <ele>84.409</ele>
        <time>2024-01-28T08:57:31Z</time>
      </trkpt>
      <trkpt lat="28.374207" lon="-16.732987">
        <ele>73.946</ele>
        <time>2024-01-28T08:59:37Z</time>
      </trkpt>
      <trkpt lat="28.374075" lon="-16.734040">
        <ele>58.430</ele>
        <time>2024-01-28T09:01:20Z</time>
      </trkpt>
      <trkpt lat="28.373272" lon="-16.735137">
        <ele>51.564</ele>
        <time>2024-01-28T09:03:06Z</time>
      </trkpt>
      <trkpt lat="28.373216" lon="-16.736133">
        <ele>47.419</ele>
        <time>2024-01-28T09:04:19Z</time>
      </trkpt>
      <trkpt lat="28.373796" lon="-16.736317">
        <ele>39.485</ele>
        <time>2024-01-28T09:05:26Z</time>
      </trkpt>
      <trkpt lat="28.374269" lon="-16.735981">
        <ele>32.160</ele>
        <time>2024-01-28T09:06:17Z</time>
      </trkpt>
      <trkpt lat="28.374917" lon="-16.734571">
        <ele>27.282</ele>
        <time>2024-01-28T09:08:12Z</time>
      </trkpt>
      <trkpt lat="28.375208" lon="-16.734622">
        <ele>26.311</ele>
        <time>2024-01-28T09:08:34Z</time>
      </trkpt>
      <trkpt lat="28.375839" lon="-16.733844">
        <ele>25.565</ele>
        <time>2024-01-28T09:09:48Z</time>
      </trkpt>
      <trkpt lat="28.376509" lon="-16.733376">
        <ele>23.162</ele>
        <time>2024-01-28T09:10:52Z</time>
      </trkpt>
      <trkpt lat="28.378237" lon="-16.731649">
        <ele>18.783</ele>
        <time>2024-01-28T09:13:57Z</time>
      </trkpt>
      <trkpt lat="28.378855" lon="-16.732337">
        <ele>23.511</ele>
        <time>2024-01-28T09:16:00Z</time>
      </trkpt>
      <trkpt lat="28.379029" lon="-16.732164">
        <ele>23.309</ele>
        <time>2024-01-28T09:16:41Z</time>
      </trkpt>
      <trkpt lat="28.379518" lon="-16.732380">
        <ele>22.277</ele>
        <time>2024-01-28T09:17:40Z</time>
      </trkpt>
      <trkpt lat="28.380142" lon="-16.732413">
        <ele>21.731</ele>
        <time>2024-01-28T09:18:47Z</time>
      </trkpt>
      <trkpt lat="28.380797" lon="-16.732040">
        <ele>19.685</ele>
        <time>2024-01-28T09:21:11Z</time>
      </trkpt>
      <trkpt lat="28.381043" lon="-16.732059">
        <ele>19.530</ele>
        <time>2024-01-28T09:21:32Z</time>
      </trkpt>
      <trkpt lat="28.381509" lon="-16.732500">
        <ele>18.336</ele>
        <time>2024-01-28T09:22:22Z</time>
      </trkpt>
      <trkpt lat="28.381800" lon="-16.733144">
        <ele>17.241</ele>
        <time>2024-01-28T09:23:11Z</time>
      </trkpt>
      <trkpt lat="28.381762" lon="-16.733547">
        <ele>17.213</ele>
        <time>2024-01-28T09:23:41Z</time>
      </trkpt>
      <trkpt lat="28.380271" lon="-16.734994">
        <ele>19.762</ele>
        <time>2024-01-28T09:26:17Z</time>
      </trkpt>
      <trkpt lat="28.379627" lon="-16.735362">
        <ele>20.176</ele>
        <time>2024-01-28T09:27:14Z</time>
      </trkpt>
      <trkpt lat="28.379060" lon="-16.735440">
        <ele>21.252</ele>
        <time>2024-01-28T09:28:01Z</time>
      </trkpt>
      <trkpt lat="28.378848" lon="-16.736831">
        <ele>23.753</ele>
        <time>2024-01-28T09:29:41Z</time>
      </trkpt>
      <trkpt lat="28.377777" lon="-16.736690">
        <ele>27.408</ele>
        <time>2024-01-28T09:31:14Z</time>
      </trkpt>
      <trkpt lat="28.377716" lon="-16.737572">
        <ele>26.609</ele>
        <time>2024-01-28T09:32:26Z</time>
      </trkpt>
      <trkpt lat="28.379750" lon="-16.737937">
        <ele>22.016</ele>
        <time>2024-01-28T09:35:08Z</time>
      </trkpt>
      <trkpt lat="28.379219" lon="-16.738820">
        <ele>21.120</ele>
        <time>2024-01-28T09:36:24Z</time>
      </trkpt>
      <trkpt lat="28.379088" lon="-16.739901">
        <ele>18.214</ele>
        <time>2024-01-28T09:37:43Z</time>
      </trkpt>
      <trkpt lat="28.378438" lon="-16.739809">
        <ele>13.449</ele>
        <time>2024-01-28T09:40:03Z</time>
      </trkpt>
      <trkpt lat="28.378196" lon="-16.739949">
        <ele>14.325</ele>
        <time>2024-01-28T09:40:37Z</time>
      </trkpt>
      <trkpt lat="28.377472" lon="-16.739159">
        <ele>17.520</ele>
        <time>2024-01-28T09:42:02Z</time>
      </trkpt>
      <trkpt lat="28.377087" lon="-16.738470">
        <ele>21.622</ele>
        <time>2024-01-28T09:43:04Z</time>
      </trkpt>
      <trkpt lat="28.377250" lon="-16.739359">
        <ele>29.611</ele>
        <time>2024-01-28T09:44:23Z</time>
      </trkpt>
      <trkpt lat="28.377974" lon="-16.740246">
        <ele>32.925</ele>
        <time>2024-01-28T09:45:53Z</time>
      </trkpt>
      <trkpt lat="28.377795" lon="-16.740503">
        <ele>34.674</ele>
        <time>2024-01-28T09:46:17Z</time>
      </trkpt>
      <trkpt lat="28.377587" lon="-16.740523">
        <ele>37.156</ele>
        <time>2024-01-28T09:46:38Z</time>
      </trkpt>
      <trkpt lat="28.376141" lon="-16.740292">
        <ele>42.821</ele>
        <time>2024-01-28T09:48:35Z</time>
      </trkpt>
      <trkpt lat="28.375959" lon="-16.740820">
        <ele>41.909</ele>
        <time>2024-01-28T09:49:20Z</time>
      </trkpt>
      <trkpt lat="28.376164" lon="-16.741032">
        <ele>41.088</ele>
        <time>2024-01-28T09:49:42Z</time>
      </trkpt>
      <trkpt lat="28.376520" lon="-16.742557">
        <ele>25.452</ele>
        <time>2024-01-28T09:52:59Z</time>
      </trkpt>
      <trkpt lat="28.376142" lon="-16.742863">
        <ele>18.796</ele>
        <time>2024-01-28T09:53:59Z</time>
      </trkpt>
      <trkpt lat="28.375848" lon="-16.742426">
        <ele>10.021</ele>
        <time>2024-01-28T09:54:52Z</time>
      </trkpt>
      <trkpt lat="28.375729" lon="-16.742977">
        <ele>16.457</ele>
        <time>2024-01-28T09:55:56Z</time>
      </trkpt>
      <trkpt lat="28.375426" lon="-16.743138">
        <ele>27.382</ele>
        <time>2024-01-28T09:56:44Z</time>
      </trkpt>
      <trkpt lat="28.375274" lon="-16.743497">
        <ele>35.144</ele>
        <time>2024-01-28T09:57:31Z</time>
      </trkpt>
      <trkpt lat="28.374276" lon="-16.743008">
        <ele>56.033</ele>
        <time>2024-01-28T09:59:21Z</time>
      </trkpt>
      <trkpt lat="28.374198" lon="-16.743139">
        <ele>57.167</ele>
        <time>2024-01-28T09:59:32Z</time>
      </trkpt>
      <trkpt lat="28.374039" lon="-16.743097">
        <ele>60.243</ele>
        <time>2024-01-28T09:59:49Z</time>
      </trkpt>
      <trkpt lat="28.374040" lon="-16.742594">
        <ele>63.164</ele>
        <time>2024-01-28T10:00:33Z</time>
      </trkpt>
      <trkpt lat="28.373655" lon="-16.742363">
        <ele>80.110</ele>
        <time>2024-01-28T10:01:39Z</time>
      </trkpt>
      <trkpt lat="28.373674" lon="-16.741975">
        <ele>82.409</ele>
        <time>2024-01-28T10:02:15Z</time>
      </trkpt>
      <trkpt lat="28.373442" lon="-16.741616">
        <ele>82.965</ele>
        <time>2024-01-28T10:02:47Z</time>
      </trkpt>
      <trkpt lat="28.373583" lon="-16.741936">
        <ele>87.239</ele>
        <time>2024-01-28T10:03:24Z</time>
      </trkpt>
      <trkpt lat="28.372402" lon="-16.741606">
        <ele>120.143</ele>
        <time>2024-01-28T10:06:49Z</time>
      </trkpt>
      <trkpt lat="28.371819" lon="-16.741841">
        <ele>149.418</ele>
        <time>2024-01-28T10:09:32Z</time>
      </trkpt>
      <trkpt lat="28.371269" lon="-16.740611">
        <ele>182.514</ele>
        <time>2024-01-28T10:12:50Z</time>
      </trkpt>
      <trkpt lat="28.371080" lon="-16.741042">
        <ele>198.529</ele>
        <time>2024-01-28T10:14:13Z</time>
      </trkpt>
      <trkpt lat="28.370971" lon="-16.739774">
        <ele>206.561</ele>
        <time>2024-01-28T10:16:18Z</time>
      </trkpt>
      <trkpt lat="28.371326" lon="-16.739256">
        <ele>206.850</ele>
        <time>2024-01-28T10:17:10Z</time>
      </trkpt>
      <trkpt lat="28.371323" lon="-16.738920">
        <ele>206.884</ele>
        <time>2024-01-28T10:17:42Z</time>
      </trkpt>
      <trkpt lat="28.370803" lon="-16.737598">
        <ele>206.789</ele>
        <time>2024-01-28T10:19:54Z</time>
      </trkpt>
      <trkpt lat="28.370976" lon="-16.737316">
        <ele>206.606</ele>
        <time>2024-01-28T10:20:28Z</time>
      </trkpt>
      <trkpt lat="28.370722" lon="-16.735934">
        <ele>207.226</ele>
        <time>2024-01-28T10:22:29Z</time>
      </trkpt>
      <trkpt lat="28.371349" lon="-16.734371">
        <ele>206.709</ele>
        <time>2024-01-28T10:25:58Z</time>
      </trkpt>
      <trkpt lat="28.370891" lon="-16.733429">
        <ele>207.849</ele>
        <time>2024-01-28T10:27:35Z</time>
      </trkpt>
      <trkpt lat="28.371092" lon="-16.733261">
        <ele>207.893</ele>
        <time>2024-01-28T10:28:01Z</time>
      </trkpt>
      <trkpt lat="28.370818" lon="-16.733162">
        <ele>212.617</ele>
        <time>2024-01-28T10:28:54Z</time>
      </trkpt>
      <trkpt lat="28.370502" lon="-16.733337">
        <ele>221.192</ele>
        <time>2024-01-28T10:29:39Z</time>
      </trkpt>
      <trkpt lat="28.370333" lon="-16.733249">
        <ele>223.318</ele>
        <time>2024-01-28T10:30:02Z</time>
      </trkpt>
      <trkpt lat="28.370396" lon="-16.732397">
        <ele>226.043</ele>
        <time>2024-01-28T10:31:15Z</time>
      </trkpt>
      <trkpt lat="28.370178" lon="-16.732162">
        <ele>228.145</ele>
        <time>2024-01-28T10:31:49Z</time>
      </trkpt>
      <trkpt lat="28.370217" lon="-16.731581">
        <ele>233.044</ele>
        <time>2024-01-28T10:32:43Z</time>
      </trkpt>
      <trkpt lat="28.369988" lon="-16.731985">
        <ele>239.138</ele>
        <time>2024-01-28T10:33:31Z</time>
      </trkpt>
      <trkpt lat="28.369873" lon="-16.731942">
        <ele>241.475</ele>
        <time>2024-01-28T10:33:48Z</time>
      </trkpt>
      <trkpt lat="28.369932" lon="-16.730657">
        <ele>256.428</ele>
        <time>2024-01-28T10:35:54Z</time>
      </trkpt>
      <trkpt lat="28.369161" lon="-16.731763">
        <ele>271.020</ele>
        <time>2024-01-28T10:38:11Z</time>
      </trkpt>
      <trkpt lat="28.369209" lon="-16.730510">
        <ele>287.209</ele>
        <time>2024-01-28T10:40:12Z</time>
      </trkpt>
      <trkpt lat="28.368912" lon="-16.730131">
        <ele>293.518</ele>
        <time>2024-01-28T10:40:58Z</time>
      </trkpt>
      <trkpt lat="28.368701" lon="-16.729480">
        <ele>303.162</ele>
        <time>2024-01-28T10:42:10Z</time>
      </trkpt>
      <trkpt lat="28.365971" lon="-16.727419">
        <ele>301.036</ele>
        <time>2024-01-28T10:46:52Z</time>
      </trkpt>
      <trkpt lat="28.366098" lon="-16.726551">
        <ele>289.011</ele>
        <time>2024-01-28T10:48:05Z</time>
      </trkpt>
      <trkpt lat="28.365809" lon="-16.725626">
        <ele>283.967</ele>
        <time>2024-01-28T10:49:22Z</time>
      </trkpt>
      <trkpt lat="28.366049" lon="-16.725051">
        <ele>274.572</ele>
        <time>2024-01-28T10:50:13Z</time>
      </trkpt>
      <trkpt lat="28.365722" lon="-16.724440">
        <ele>266.994</ele>
        <time>2024-01-28T10:51:07Z</time>
      </trkpt>
      <trkpt lat="28.365836" lon="-16.724259">
        <ele>264.133</ele>
        <time>2024-01-28T10:51:26Z</time>
      </trkpt>
      <trkpt lat="28.365731" lon="-16.723675">
        <ele>255.487</ele>
        <time>2024-01-28T10:52:17Z</time>
      </trkpt>
      <trkpt lat="28.365324" lon="-16.722896">
        <ele>247.431</ele>
        <time>2024-01-28T10:53:33Z</time>
      </trkpt>
      <trkpt lat="28.365490" lon="-16.722102">
        <ele>241.361</ele>
        <time>2024-01-28T10:54:35Z</time>
      </trkpt>
      <trkpt lat="28.366137" lon="-16.721204">
        <ele>245.307</ele>
        <time>2024-01-28T10:56:03Z</time>
      </trkpt>
      <trkpt lat="28.366472" lon="-16.721054">
        <ele>247.409</ele>
        <time>2024-01-28T10:56:29Z</time>
      </trkpt>
      <trkpt lat="28.366833" lon="-16.721139">
        <ele>246.944</ele>
        <time>2024-01-28T10:57:00Z</time>
      </trkpt>
      <trkpt lat="28.366999" lon="-16.720605">
        <ele>240.938</ele>
        <time>2024-01-28T10:57:45Z</time>
      </trkpt>
      <trkpt lat="28.367591" lon="-16.720854">
        <ele>236.912</ele>
        <time>2024-01-28T10:58:37Z</time>
      </trkpt>
      <trkpt lat="28.368413" lon="-16.719263">
        <ele>220.237</ele>
        <time>2024-01-28T11:00:53Z</time>
      </trkpt>
      <trkpt lat="28.368967" lon="-16.719220">
        <ele>216.513</ele>
        <time>2024-01-28T11:01:34Z</time>
      </trkpt>
      <trkpt lat="28.369238" lon="-16.718902">
        <ele>218.298</ele>
        <time>2024-01-28T11:02:13Z</time>
      </trkpt>
      <trkpt lat="28.369260" lon="-16.717851">
        <ele>225.410</ele>
        <time>2024-01-28T11:03:37Z</time>
      </trkpt>
      <trkpt lat="28.369440" lon="-16.717709">
        <ele>225.939</ele>
        <time>2024-01-28T11:04:04Z</time>
      </trkpt>
      <trkpt lat="28.369709" lon="-16.717762">
        <ele>226.613</ele>
        <time>2024-01-28T11:04:29Z</time>
      </trkpt>
    </trkseg>
  </trk></gpx>